sensor_id;sensor_type;location;lat;lon;timestamp;pressure;altitude;pressure_sealevel;temperature
53412;BMP280;39307;52.870;13.660;2023-04-03T00:01:16;102561.00;;;1.32
53412;BMP280;39307;52.870;13.660;2023-04-03T00:03:43;102556.19;;;1.42
53412;BMP280;39307;52.870;13.660;2023-04-03T00:06:09;102556.53;;;1.36
53412;BMP280;39307;52.870;13.660;2023-04-03T00:08:35;102556.78;;;1.31
53412;BMP280;39307;52.870;13.660;2023-04-03T00:11:02;102559.84;;;1.38
53412;BMP280;39307;52.870;13.660;2023-04-03T00:13:29;102551.69;;;1.30
53412;BMP280;39307;52.870;13.660;2023-04-03T00:15:55;102560.75;;;1.21
53412;BMP280;39307;52.870;13.660;2023-04-03T00:18:21;102556.81;;;1.14
53412;BMP280;39307;52.870;13.660;2023-04-03T00:20:48;102555.75;;;1.18
53412;BMP280;39307;52.870;13.660;2023-04-03T00:23:15;102569.88;;;1.12
53412;BMP280;39307;52.870;13.660;2023-04-03T00:25:41;102563.31;;;1.06
53412;BMP280;39307;52.870;13.660;2023-04-03T00:28:08;102559.28;;;1.01
53412;BMP280;39307;52.870;13.660;2023-04-03T00:30:34;102564.47;;;1.01
53412;BMP280;39307;52.870;13.660;2023-04-03T00:33:00;102564.47;;;1.01
53412;BMP280;39307;52.870;13.660;2023-04-03T00:35:27;102562.84;;;0.98
53412;BMP280;39307;52.870;13.660;2023-04-03T00:37:54;102556.19;;;0.94
53412;BMP280;39307;52.870;13.660;2023-04-03T00:40:23;102562.91;;;0.97
53412;BMP280;39307;52.870;13.660;2023-04-03T00:42:56;102565.81;;;0.91
53412;BMP280;39307;52.870;13.660;2023-04-03T00:45:35;102567.41;;;0.93
53412;BMP280;39307;52.870;13.660;2023-04-03T00:48:05;102559.47;;;0.81
53412;BMP280;39307;52.870;13.660;2023-04-03T00:50:35;102564.72;;;0.80
53412;BMP280;39307;52.870;13.660;2023-04-03T00:53:04;102565.53;;;0.80
53412;BMP280;39307;52.870;13.660;2023-04-03T00:55:31;102568.03;;;0.82
53412;BMP280;39307;52.870;13.660;2023-04-03T00:57:59;102565.84;;;0.74
53412;BMP280;39307;52.870;13.660;2023-04-03T01:00:26;102570.25;;;0.72
53412;BMP280;39307;52.870;13.660;2023-04-03T01:02:52;102567.81;;;0.69
53412;BMP280;39307;52.870;13.660;2023-04-03T01:05:21;102572.31;;;0.66
53412;BMP280;39307;52.870;13.660;2023-04-03T01:07:48;102565.69;;;0.60
53412;BMP280;39307;52.870;13.660;2023-04-03T01:10:17;102566.63;;;0.59
53412;BMP280;39307;52.870;13.660;2023-04-03T01:12:45;102566.09;;;0.53
53412;BMP280;39307;52.870;13.660;2023-04-03T01:15:16;102554.13;;;0.52
53412;BMP280;39307;52.870;13.660;2023-04-03T01:17:51;102569.50;;;0.54
53412;BMP280;39307;52.870;13.660;2023-04-03T01:25:54;102562.66;;;0.36
53412;BMP280;39307;52.870;13.660;2023-04-03T01:28:25;102566.16;;;0.35
53412;BMP280;39307;52.870;13.660;2023-04-03T01:31:22;102562.97;;;0.30
53412;BMP280;39307;52.870;13.660;2023-04-03T01:33:50;102558.81;;;0.28
53412;BMP280;39307;52.870;13.660;2023-04-03T01:36:23;102568.41;;;0.24
53412;BMP280;39307;52.870;13.660;2023-04-03T01:38:50;102572.88;;;0.21
53412;BMP280;39307;52.870;13.660;2023-04-03T01:41:16;102579.78;;;0.20
53412;BMP280;39307;52.870;13.660;2023-04-03T01:43:43;102585.84;;;0.19
53412;BMP280;39307;52.870;13.660;2023-04-03T01:46:09;102588.34;;;0.21
53412;BMP280;39307;52.870;13.660;2023-04-03T01:48:36;102586.44;;;0.24
53412;BMP280;39307;52.870;13.660;2023-04-03T01:51:02;102591.00;;;0.19
53412;BMP280;39307;52.870;13.660;2023-04-03T01:53:29;102598.75;;;0.19
53412;BMP280;39307;52.870;13.660;2023-04-03T01:55:55;102590.31;;;0.16
53412;BMP280;39307;52.870;13.660;2023-04-03T01:58:21;102593.09;;;0.11
53412;BMP280;39307;52.870;13.660;2023-04-03T02:00:48;102595.09;;;0.06
53412;BMP280;39307;52.870;13.660;2023-04-03T02:03:14;102602.09;;;0.03
53412;BMP280;39307;52.870;13.660;2023-04-03T02:05:40;102610.00;;;0.00
53412;BMP280;39307;52.870;13.660;2023-04-03T02:08:06;102597.94;;;0.00
53412;BMP280;39307;52.870;13.660;2023-04-03T02:10:32;102612.41;;;0.03
53412;BMP280;39307;52.870;13.660;2023-04-03T02:12:59;102598.53;;;0.05
53412;BMP280;39307;52.870;13.660;2023-04-03T02:15:25;102602.88;;;0.05
53412;BMP280;39307;52.870;13.660;2023-04-03T02:17:52;102602.88;;;0.05
53412;BMP280;39307;52.870;13.660;2023-04-03T02:20:18;102603.69;;;0.05
53412;BMP280;39307;52.870;13.660;2023-04-03T02:22:44;102604.97;;;-0.03
53412;BMP280;39307;52.870;13.660;2023-04-03T02:25:11;102611.78;;;-0.02
53412;BMP280;39307;52.870;13.660;2023-04-03T02:27:37;102612.09;;;-0.08
53412;BMP280;39307;52.870;13.660;2023-04-03T02:30:04;102617.91;;;-0.04
53412;BMP280;39307;52.870;13.660;2023-04-03T02:32:30;102622.56;;;-0.12
53412;BMP280;39307;52.870;13.660;2023-04-03T02:34:56;102619.53;;;-0.20
53412;BMP280;39307;52.870;13.660;2023-04-03T02:37:23;102625.38;;;-0.17
53412;BMP280;39307;52.870;13.660;2023-04-03T02:39:49;102618.47;;;-0.16
53412;BMP280;39307;52.870;13.660;2023-04-03T02:42:15;102621.00;;;-0.15
53412;BMP280;39307;52.870;13.660;2023-04-03T02:44:41;102627.03;;;-0.16
53412;BMP280;39307;52.870;13.660;2023-04-03T02:47:08;102627.38;;;-0.05
53412;BMP280;39307;52.870;13.660;2023-04-03T02:49:34;102627.81;;;-0.14
53412;BMP280;39307;52.870;13.660;2023-04-03T02:52:00;102633.25;;;-0.20
53412;BMP280;39307;52.870;13.660;2023-04-03T02:54:26;102633.31;;;-0.21
53412;BMP280;39307;52.870;13.660;2023-04-03T02:56:53;102635.81;;;-0.20
53412;BMP280;39307;52.870;13.660;2023-04-03T02:59:19;102627.25;;;-0.20
53412;BMP280;39307;52.870;13.660;2023-04-03T03:01:45;102630.16;;;-0.28
53412;BMP280;39307;52.870;13.660;2023-04-03T03:04:11;102636.91;;;-0.25
53412;BMP280;39307;52.870;13.660;2023-04-03T03:06:38;102630.94;;;-0.26
53412;BMP280;39307;52.870;13.660;2023-04-03T03:09:04;102641.38;;;-0.29
53412;BMP280;39307;52.870;13.660;2023-04-03T03:11:30;102643.31;;;-0.33
53412;BMP280;39307;52.870;13.660;2023-04-03T03:13:56;102634.75;;;-0.34
53412;BMP280;39307;52.870;13.660;2023-04-03T03:16:22;102651.19;;;-0.36
53412;BMP280;39307;52.870;13.660;2023-04-03T03:18:49;102640.91;;;-0.36
53412;BMP280;39307;52.870;13.660;2023-04-03T03:21:15;102642.56;;;-0.35
53412;BMP280;39307;52.870;13.660;2023-04-03T03:23:41;102645.31;;;-0.40
53412;BMP280;39307;52.870;13.660;2023-04-03T03:26:09;102647.16;;;-0.42
53412;BMP280;39307;52.870;13.660;2023-04-03T03:28:36;102648.13;;;-0.44
53412;BMP280;39307;52.870;13.660;2023-04-03T03:31:03;102646.38;;;-0.44
53412;BMP280;39307;52.870;13.660;2023-04-03T03:33:29;102654.19;;;-0.45
53412;BMP280;39307;52.870;13.660;2023-04-03T03:35:56;102649.91;;;-0.46
53412;BMP280;39307;52.870;13.660;2023-04-03T03:38:23;102646.59;;;-0.48
53412;BMP280;39307;52.870;13.660;2023-04-03T03:40:50;102650.00;;;-0.48
53412;BMP280;39307;52.870;13.660;2023-04-03T03:43:16;102656.03;;;-0.49
53412;BMP280;39307;52.870;13.660;2023-04-03T03:45:43;102650.81;;;-0.47
53412;BMP280;39307;52.870;13.660;2023-04-03T03:48:10;102650.88;;;-0.49
53412;BMP280;39307;52.870;13.660;2023-04-03T03:50:36;102651.78;;;-0.50
53412;BMP280;39307;52.870;13.660;2023-04-03T03:53:02;102644.34;;;-0.56
53412;BMP280;39307;52.870;13.660;2023-04-03T03:55:28;102646.88;;;-0.54
53412;BMP280;39307;52.870;13.660;2023-04-03T03:57:55;102649.50;;;-0.56
53412;BMP280;39307;52.870;13.660;2023-04-03T04:00:21;102649.44;;;-0.54
53412;BMP280;39307;52.870;13.660;2023-04-03T04:02:47;102651.78;;;-0.50
53412;BMP280;39307;52.870;13.660;2023-04-03T04:05:13;102647.69;;;-0.54
53412;BMP280;39307;52.870;13.660;2023-04-03T04:07:39;102644.34;;;-0.56
53412;BMP280;39307;52.870;13.660;2023-04-03T04:10:06;102644.47;;;-0.58
53412;BMP280;39307;52.870;13.660;2023-04-03T04:12:32;102648.09;;;-0.62
53412;BMP280;39307;52.870;13.660;2023-04-03T04:14:59;102657.59;;;-0.64
53412;BMP280;39307;52.870;13.660;2023-04-03T04:17:25;102655.88;;;-0.64
53412;BMP280;39307;52.870;13.660;2023-04-03T04:19:51;102653.38;;;-0.65
53412;BMP280;39307;52.870;13.660;2023-04-03T04:22:17;102658.66;;;-0.68
53412;BMP280;39307;52.870;13.660;2023-04-03T04:24:44;102657.88;;;-0.70
53412;BMP280;39307;52.870;13.660;2023-04-03T04:27:10;102654.69;;;-0.75
53412;BMP280;39307;52.870;13.660;2023-04-03T04:29:36;102660.56;;;-0.73
53412;BMP280;39307;52.870;13.660;2023-04-03T04:32:04;102661.69;;;-0.79
53412;BMP280;39307;52.870;13.660;2023-04-03T04:34:30;102664.19;;;-0.77
53412;BMP280;39307;52.870;13.660;2023-04-03T04:36:56;102663.16;;;-0.73
53412;BMP280;39307;52.870;13.660;2023-04-03T04:39:22;102661.50;;;-0.74
53412;BMP280;39307;52.870;13.660;2023-04-03T04:41:48;102664.75;;;-0.71
53412;BMP280;39307;52.870;13.660;2023-04-03T04:44:15;102665.47;;;-0.67
53412;BMP280;39307;52.870;13.660;2023-04-03T04:46:41;102661.09;;;-0.65
53412;BMP280;39307;52.870;13.660;2023-04-03T04:49:07;102663.78;;;-0.68
53412;BMP280;39307;52.870;13.660;2023-04-03T04:51:33;102667.53;;;-0.75
53412;BMP280;39307;52.870;13.660;2023-04-03T04:53:59;102667.69;;;-0.78
53412;BMP280;39307;52.870;13.660;2023-04-03T04:56:25;102678.72;;;-0.76
53412;BMP280;39307;52.870;13.660;2023-04-03T04:58:51;102673.78;;;-0.81
53412;BMP280;39307;52.870;13.660;2023-04-03T05:01:17;102676.34;;;-0.81
53412;BMP280;39307;52.870;13.660;2023-04-03T05:03:44;102672.69;;;-0.75
53412;BMP280;39307;52.870;13.660;2023-04-03T05:06:10;102676.91;;;-0.74
53412;BMP280;39307;52.870;13.660;2023-04-03T05:08:36;102684.72;;;-0.76
53412;BMP280;39307;52.870;13.660;2023-04-03T05:11:03;102683.03;;;-0.77
53412;BMP280;39307;52.870;13.660;2023-04-03T05:13:29;102690.75;;;-0.77
53412;BMP280;39307;52.870;13.660;2023-04-03T05:15:55;102686.31;;;-0.73
53412;BMP280;39307;52.870;13.660;2023-04-03T05:18:22;102692.34;;;-0.74
53412;BMP280;39307;52.870;13.660;2023-04-03T05:20:51;102694.94;;;-0.74
53412;BMP280;39307;52.870;13.660;2023-04-03T05:23:17;102696.31;;;-0.67
53412;BMP280;39307;52.870;13.660;2023-04-03T05:25:44;102693.97;;;-0.72
53412;BMP280;39307;52.870;13.660;2023-04-03T05:28:10;102694.94;;;-0.74
53412;BMP280;39307;52.870;13.660;2023-04-03T05:30:36;102704.50;;;-0.78
53412;BMP280;39307;52.870;13.660;2023-04-03T05:33:02;102703.69;;;-0.78
53412;BMP280;39307;52.870;13.660;2023-04-03T05:35:29;102703.56;;;-0.75
53412;BMP280;39307;52.870;13.660;2023-04-03T05:37:55;102693.25;;;-0.75
53412;BMP280;39307;52.870;13.660;2023-04-03T05:40:21;102686.03;;;-0.67
53412;BMP280;39307;52.870;13.660;2023-04-03T05:42:48;102693.88;;;-0.70
53412;BMP280;39307;52.870;13.660;2023-04-03T05:45:14;102697.88;;;-0.63
53412;BMP280;39307;52.870;13.660;2023-04-03T05:47:40;102701.22;;;-0.61
53412;BMP280;39307;52.870;13.660;2023-04-03T05:50:07;102691.63;;;-0.58
53412;BMP280;39307;52.870;13.660;2023-04-03T05:52:39;102697.75;;;-0.60
53412;BMP280;39307;52.870;13.660;2023-04-03T05:55:07;102705.41;;;-0.59
53412;BMP280;39307;52.870;13.660;2023-04-03T05:57:33;102701.66;;;-0.52
53412;BMP280;39307;52.870;13.660;2023-04-03T05:59:59;102706.66;;;-0.49
53412;BMP280;39307;52.870;13.660;2023-04-03T06:02:25;102704.78;;;-0.46
53412;BMP280;39307;52.870;13.660;2023-04-03T06:04:52;102702.16;;;-0.44
53412;BMP280;39307;52.870;13.660;2023-04-03T06:07:20;102709.63;;;-0.38
53412;BMP280;39307;52.870;13.660;2023-04-03T06:09:47;102708.22;;;-0.45
53412;BMP280;39307;52.870;13.660;2023-04-03T06:12:14;102705.66;;;-0.45
53412;BMP280;39307;52.870;13.660;2023-04-03T06:14:40;102708.91;;;-0.42
53412;BMP280;39307;52.870;13.660;2023-04-03T06:17:07;102711.38;;;-0.39
53412;BMP280;39307;52.870;13.660;2023-04-03T06:19:33;102714.63;;;-0.35
53412;BMP280;39307;52.870;13.660;2023-04-03T06:21:59;102717.00;;;-0.31
53412;BMP280;39307;52.870;13.660;2023-04-03T06:24:25;102720.06;;;-0.23
53412;BMP280;39307;52.870;13.660;2023-04-03T06:26:52;102716.19;;;-0.13
53412;BMP280;39307;52.870;13.660;2023-04-03T06:29:19;102721.88;;;0.11
53412;BMP280;39307;52.870;13.660;2023-04-03T06:31:46;102718.69;;;0.43
53412;BMP280;39307;52.870;13.660;2023-04-03T06:34:12;102727.69;;;0.51
53412;BMP280;39307;52.870;13.660;2023-04-03T06:36:39;102723.06;;;0.41
53412;BMP280;39307;52.870;13.660;2023-04-03T06:39:06;102726.28;;;0.46
53412;BMP280;39307;52.870;13.660;2023-04-03T06:41:32;102722.09;;;0.95
53412;BMP280;39307;52.870;13.660;2023-04-03T06:43:59;102718.31;;;0.85
53412;BMP280;39307;52.870;13.660;2023-04-03T06:46:26;102723.47;;;0.85
53412;BMP280;39307;52.870;13.660;2023-04-03T06:48:52;102723.75;;;0.79
53412;BMP280;39307;52.870;13.660;2023-04-03T06:51:26;102721.63;;;0.87
53412;BMP280;39307;52.870;13.660;2023-04-03T06:53:55;102729.06;;;1.26
53412;BMP280;39307;52.870;13.660;2023-04-03T06:56:22;102733.63;;;1.21
53412;BMP280;39307;52.870;13.660;2023-04-03T06:58:49;102736.22;;;1.21
53412;BMP280;39307;52.870;13.660;2023-04-03T07:01:16;102721.47;;;1.72
53412;BMP280;39307;52.870;13.660;2023-04-03T07:03:42;102720.69;;;2.02
53412;BMP280;39307;52.870;13.660;2023-04-03T07:06:12;102729.56;;;2.13
53412;BMP280;39307;52.870;13.660;2023-04-03T07:08:40;102733.97;;;2.27
53412;BMP280;39307;52.870;13.660;2023-04-03T07:11:06;102729.56;;;2.13
53412;BMP280;39307;52.870;13.660;2023-04-03T07:13:33;102735.31;;;2.33
53412;BMP280;39307;52.870;13.660;2023-04-03T07:15:59;102748.25;;;2.33
53412;BMP280;39307;52.870;13.660;2023-04-03T07:18:25;102745.41;;;2.53
53412;BMP280;39307;52.870;13.660;2023-04-03T07:20:52;102746.56;;;2.32
53412;BMP280;39307;52.870;13.660;2023-04-03T07:23:18;102742.50;;;2.29
53412;BMP280;39307;52.870;13.660;2023-04-03T07:25:49;102739.72;;;2.62
53412;BMP280;39307;52.870;13.660;2023-04-03T07:28:17;102746.88;;;2.57
53412;BMP280;39307;52.870;13.660;2023-04-03T07:30:45;102745.47;;;2.36
53412;BMP280;39307;52.870;13.660;2023-04-03T07:33:12;102745.47;;;2.67
53412;BMP280;39307;52.870;13.660;2023-04-03T07:35:39;102744.09;;;2.90
53412;BMP280;39307;52.870;13.660;2023-04-03T07:38:06;102755.22;;;2.77
53412;BMP280;39307;52.870;13.660;2023-04-03T07:40:32;102752.88;;;2.73
53412;BMP280;39307;52.870;13.660;2023-04-03T07:42:59;102763.63;;;2.81
53412;BMP280;39307;52.870;13.660;2023-04-03T07:45:25;102750.28;;;3.17
53412;BMP280;39307;52.870;13.660;2023-04-03T07:47:52;102756.13;;;3.20
53412;BMP280;39307;52.870;13.660;2023-04-03T07:50:18;102751.53;;;3.25
53412;BMP280;39307;52.870;13.660;2023-04-03T07:52:45;102754.09;;;3.25
53412;BMP280;39307;52.870;13.660;2023-04-03T07:55:12;102741.53;;;3.76
53412;BMP280;39307;52.870;13.660;2023-04-03T07:57:38;102751.22;;;3.72
53412;BMP280;39307;52.870;13.660;2023-04-03T08:00:06;102732.72;;;3.92
53412;BMP280;39307;52.870;13.660;2023-04-03T08:02:33;102740.31;;;3.95
53412;BMP280;39307;52.870;13.660;2023-04-03T08:04:59;102738.31;;;4.26
53412;BMP280;39307;52.870;13.660;2023-04-03T08:07:25;102738.13;;;4.43
53412;BMP280;39307;52.870;13.660;2023-04-03T08:09:52;102734.91;;;4.52
53412;BMP280;39307;52.870;13.660;2023-04-03T08:12:18;102731.31;;;4.80
53412;BMP280;39307;52.870;13.660;2023-04-03T08:14:44;102732.78;;;4.84
53412;BMP280;39307;52.870;13.660;2023-04-03T08:17:10;102743.66;;;5.15
53412;BMP280;39307;52.870;13.660;2023-04-03T08:19:37;102742.13;;;4.87
53412;BMP280;39307;52.870;13.660;2023-04-03T08:22:04;102743.78;;;5.26
53412;BMP280;39307;52.870;13.660;2023-04-03T08:24:30;102735.28;;;5.61
53412;BMP280;39307;52.870;13.660;2023-04-03T08:26:57;102738.34;;;5.67
53412;BMP280;39307;52.870;13.660;2023-04-03T08:29:24;102735.72;;;5.67
53412;BMP280;39307;52.870;13.660;2023-04-03T08:31:50;102727.63;;;5.96
53412;BMP280;39307;52.870;13.660;2023-04-03T08:34:17;102731.34;;;6.04
53412;BMP280;39307;52.870;13.660;2023-04-03T08:36:44;102729.44;;;6.54
53412;BMP280;39307;52.870;13.660;2023-04-03T08:39:10;102716.97;;;6.70
53412;BMP280;39307;52.870;13.660;2023-04-03T08:41:39;102718.38;;;6.63
53412;BMP280;39307;52.870;13.660;2023-04-03T08:44:38;102714.94;;;6.62
53412;BMP280;39307;52.870;13.660;2023-04-03T08:47:38;102695.81;;;7.08
53412;BMP280;39307;52.870;13.660;2023-04-03T08:50:17;102707.34;;;7.17
53412;BMP280;39307;52.870;13.660;2023-04-03T08:52:57;102718.09;;;7.12
53412;BMP280;39307;52.870;13.660;2023-04-03T08:55:41;102719.34;;;6.73
53412;BMP280;39307;52.870;13.660;2023-04-03T08:58:12;102720.94;;;6.52
53412;BMP280;39307;52.870;13.660;2023-04-03T09:00:46;102714.25;;;6.48
53412;BMP280;39307;52.870;13.660;2023-04-03T09:03:16;102712.06;;;6.19
53412;BMP280;39307;52.870;13.660;2023-04-03T09:05:51;102716.25;;;6.22
53412;BMP280;39307;52.870;13.660;2023-04-03T09:08:28;102713.91;;;6.30
53412;BMP280;39307;52.870;13.660;2023-04-03T09:13:57;102713.78;;;5.96
53412;BMP280;39307;52.870;13.660;2023-04-03T09:16:28;102718.88;;;5.85
53412;BMP280;39307;52.870;13.660;2023-04-03T09:21:57;102720.97;;;5.68
53412;BMP280;39307;52.870;13.660;2023-04-03T09:24:24;102718.38;;;5.43
53412;BMP280;39307;52.870;13.660;2023-04-03T09:27:15;102711.19;;;5.46
53412;BMP280;39307;52.870;13.660;2023-04-03T09:29:44;102712.78;;;5.86
53412;BMP280;39307;52.870;13.660;2023-04-03T09:32:29;102706.69;;;6.10
53412;BMP280;39307;52.870;13.660;2023-04-03T09:35:03;102710.19;;;6.21
53412;BMP280;39307;52.870;13.660;2023-04-03T09:37:42;102699.78;;;6.21
53412;BMP280;39307;52.870;13.660;2023-04-03T09:42:58;102714.16;;;6.14
53412;BMP280;39307;52.870;13.660;2023-04-03T09:45:28;102711.28;;;5.94
53412;BMP280;39307;52.870;13.660;2023-04-03T09:48:15;102703.19;;;5.99
53412;BMP280;39307;52.870;13.660;2023-04-03T09:53:36;102708.19;;;5.65
53412;BMP280;39307;52.870;13.660;2023-04-03T09:56:19;102702.88;;;5.78
53412;BMP280;39307;52.870;13.660;2023-04-03T09:58:52;102699.44;;;5.90
53412;BMP280;39307;52.870;13.660;2023-04-03T10:01:38;102698.41;;;5.93
53412;BMP280;39307;52.870;13.660;2023-04-03T10:04:15;102701.28;;;6.13
53412;BMP280;39307;52.870;13.660;2023-04-03T10:06:48;102699.81;;;6.09
53412;BMP280;39307;52.870;13.660;2023-04-03T10:09:22;102699.34;;;5.92
53412;BMP280;39307;52.870;13.660;2023-04-03T10:14:36;102699.03;;;5.84
53412;BMP280;39307;52.870;13.660;2023-04-03T10:25:23;102689.06;;;5.78
53412;BMP280;39307;52.870;13.660;2023-04-03T10:28:10;102695.81;;;5.80
53412;BMP280;39307;52.870;13.660;2023-04-03T10:34:00;102692.38;;;5.80
53412;BMP280;39307;52.870;13.660;2023-04-03T10:36:44;102695.50;;;5.73
53412;BMP280;39307;52.870;13.660;2023-04-03T10:54:11;102683.25;;;5.75
53412;BMP280;39307;52.870;13.660;2023-04-03T11:01:56;102686.56;;;5.76
53412;BMP280;39307;52.870;13.660;2023-04-03T11:04:25;102676.19;;;5.76
53412;BMP280;39307;52.870;13.660;2023-04-03T11:07:07;102677.19;;;5.62
53412;BMP280;39307;52.870;13.660;2023-04-03T11:09:37;102678.03;;;5.62
53412;BMP280;39307;52.870;13.660;2023-04-03T11:14:48;102672.50;;;5.67
53412;BMP280;39307;52.870;13.660;2023-04-03T11:23:01;102672.72;;;5.51
53412;BMP280;39307;52.870;13.660;2023-04-03T11:25:31;102667.72;;;5.61
53412;BMP280;39307;52.870;13.660;2023-04-03T11:28:01;102662.22;;;5.65
53412;BMP280;39307;52.870;13.660;2023-04-03T11:33:41;102652.63;;;5.90
53412;BMP280;39307;52.870;13.660;2023-04-03T11:38:51;102648.88;;;6.30
53412;BMP280;39307;52.870;13.660;2023-04-03T11:41:28;102641.56;;;6.34
53412;BMP280;39307;52.870;13.660;2023-04-03T11:44:34;102638.47;;;6.53
53412;BMP280;39307;52.870;13.660;2023-04-03T11:47:02;102624.59;;;6.75
53412;BMP280;39307;52.870;13.660;2023-04-03T12:05:52;102628.41;;;6.25
53412;BMP280;39307;52.870;13.660;2023-04-03T12:08:30;102631.69;;;6.27
53412;BMP280;39307;52.870;13.660;2023-04-03T12:24:32;102643.72;;;5.82
53412;BMP280;39307;52.870;13.660;2023-04-03T12:27:33;102648.72;;;5.73
53412;BMP280;39307;52.870;13.660;2023-04-03T12:30:23;102646.28;;;5.70
53412;BMP280;39307;52.870;13.660;2023-04-03T12:33:04;102646.25;;;5.46
53412;BMP280;39307;52.870;13.660;2023-04-03T12:36:13;102643.31;;;5.51
53412;BMP280;39307;52.870;13.660;2023-04-03T12:41:54;102641.63;;;5.62
53412;BMP280;39307;52.870;13.660;2023-04-03T12:44:44;102641.25;;;5.56
53412;BMP280;39307;52.870;13.660;2023-04-03T12:47:35;102641.34;;;5.42
53412;BMP280;39307;52.870;13.660;2023-04-03T12:50:04;102640.44;;;5.43
53412;BMP280;39307;52.870;13.660;2023-04-03T12:52:41;102646.44;;;5.44
53412;BMP280;39307;52.870;13.660;2023-04-03T12:55:19;102644.47;;;5.59
53412;BMP280;39307;52.870;13.660;2023-04-03T12:57:46;102641.44;;;5.53
53412;BMP280;39307;52.870;13.660;2023-04-03T13:00:32;102641.88;;;5.35
53412;BMP280;39307;52.870;13.660;2023-04-03T13:03:00;102636.06;;;5.31
53412;BMP280;39307;52.870;13.660;2023-04-03T13:05:27;102635.31;;;5.29
53412;BMP280;39307;52.870;13.660;2023-04-03T13:08:09;102632.72;;;5.29
53412;BMP280;39307;52.870;13.660;2023-04-03T13:10:58;102633.34;;;5.45
53412;BMP280;39307;52.870;13.660;2023-04-03T13:13:26;102634.06;;;5.47
53412;BMP280;39307;52.870;13.660;2023-04-03T13:15:52;102622.31;;;5.54
53412;BMP280;39307;52.870;13.660;2023-04-03T13:18:33;102618.47;;;5.72
53412;BMP280;39307;52.870;13.660;2023-04-03T13:21:05;102614.75;;;5.99
53412;BMP280;39307;52.870;13.660;2023-04-03T13:23:32;102607.66;;;6.13
53412;BMP280;39307;52.870;13.660;2023-04-03T13:26:01;102603.81;;;6.06
53412;BMP280;39307;52.870;13.660;2023-04-03T13:28:28;102610.88;;;6.27
53412;BMP280;39307;52.870;13.660;2023-04-03T13:33:36;102602.94;;;6.41
53412;BMP280;39307;52.870;13.660;2023-04-03T13:36:16;102584.59;;;6.42
53412;BMP280;39307;52.870;13.660;2023-04-03T13:38:43;102593.63;;;6.26
53412;BMP280;39307;52.870;13.660;2023-04-03T13:41:31;102589.53;;;6.11
53412;BMP280;39307;52.870;13.660;2023-04-03T13:46:42;102595.75;;;5.98
53412;BMP280;39307;52.870;13.660;2023-04-03T13:49:28;102589.66;;;5.75
53412;BMP280;39307;52.870;13.660;2023-04-03T13:51:55;102591.81;;;5.93
53412;BMP280;39307;52.870;13.660;2023-04-03T13:54:36;102589.31;;;5.91
53412;BMP280;39307;52.870;13.660;2023-04-03T13:57:16;102592.38;;;5.73
53412;BMP280;39307;52.870;13.660;2023-04-03T13:59:45;102598.50;;;5.72
53412;BMP280;39307;52.870;13.660;2023-04-03T14:02:33;102605.91;;;5.41
53412;BMP280;39307;52.870;13.660;2023-04-03T14:05:01;102602.38;;;5.42
53412;BMP280;39307;52.870;13.660;2023-04-03T14:07:29;102603.75;;;5.35
53412;BMP280;39307;52.870;13.660;2023-04-03T14:09:55;102604.69;;;5.34
53412;BMP280;39307;52.870;13.660;2023-04-03T14:12:34;102605.59;;;5.21
53412;BMP280;39307;52.870;13.660;2023-04-03T14:15:05;102600.38;;;5.45
53412;BMP280;39307;52.870;13.660;2023-04-03T14:17:34;102600.75;;;5.29
53412;BMP280;39307;52.870;13.660;2023-04-03T14:20:01;102594.50;;;5.19
53412;BMP280;39307;52.870;13.660;2023-04-03T14:22:31;102601.88;;;5.37
53412;BMP280;39307;52.870;13.660;2023-04-03T14:24:58;102595.94;;;5.35
53412;BMP280;39307;52.870;13.660;2023-04-03T14:27:30;102591.09;;;5.31
53412;BMP280;39307;52.870;13.660;2023-04-03T14:30:00;102591.88;;;5.56
53412;BMP280;39307;52.870;13.660;2023-04-03T14:32:27;102591.44;;;5.62
53412;BMP280;39307;52.870;13.660;2023-04-03T14:34:53;102585.25;;;5.52
53412;BMP280;39307;52.870;13.660;2023-04-03T14:37:23;102589.69;;;5.50
53412;BMP280;39307;52.870;13.660;2023-04-03T14:39:51;102582.31;;;5.56
53412;BMP280;39307;52.870;13.660;2023-04-03T14:42:23;102578.88;;;5.56
53412;BMP280;39307;52.870;13.660;2023-04-03T14:44:50;102584.47;;;5.62
53412;BMP280;39307;52.870;13.660;2023-04-03T14:47:21;102578.31;;;5.63
53412;BMP280;39307;52.870;13.660;2023-04-03T14:49:47;102575.94;;;5.73
53412;BMP280;39307;52.870;13.660;2023-04-03T14:52:23;102579.16;;;5.64
53412;BMP280;39307;52.870;13.660;2023-04-03T14:54:50;102576.69;;;5.62
53412;BMP280;39307;52.870;13.660;2023-04-03T14:57:17;102581.03;;;5.62
53412;BMP280;39307;52.870;13.660;2023-04-03T14:59:44;102563.06;;;5.71
53412;BMP280;39307;52.870;13.660;2023-04-03T15:02:32;102563.34;;;5.67
53412;BMP280;39307;52.870;13.660;2023-04-03T15:05:00;102568.56;;;6.02
53412;BMP280;39307;52.870;13.660;2023-04-03T15:07:29;102564.91;;;5.81
53412;BMP280;39307;52.870;13.660;2023-04-03T15:09:55;102570.81;;;5.83
53412;BMP280;39307;52.870;13.660;2023-04-03T15:12:23;102568.75;;;5.64
53412;BMP280;39307;52.870;13.660;2023-04-03T15:14:49;102574.28;;;5.72
53412;BMP280;39307;52.870;13.660;2023-04-03T15:17:17;102581.47;;;5.56
53412;BMP280;39307;52.870;13.660;2023-04-03T15:19:45;102581.34;;;5.57
53412;BMP280;39307;52.870;13.660;2023-04-03T15:22:16;102582.63;;;5.52
53412;BMP280;39307;52.870;13.660;2023-04-03T15:24:43;102578.84;;;5.68
53412;BMP280;39307;52.870;13.660;2023-04-03T15:27:11;102579.81;;;5.55
53412;BMP280;39307;52.870;13.660;2023-04-03T15:29:39;102584.38;;;5.51
53412;BMP280;39307;52.870;13.660;2023-04-03T15:32:07;102575.56;;;5.42
53412;BMP280;39307;52.870;13.660;2023-04-03T15:34:34;102570.78;;;5.36
53412;BMP280;39307;52.870;13.660;2023-04-03T15:37:00;102567.38;;;5.35
53412;BMP280;39307;52.870;13.660;2023-04-03T15:39:26;102570.78;;;5.48
53412;BMP280;39307;52.870;13.660;2023-04-03T15:41:53;102569.81;;;5.61
53412;BMP280;39307;52.870;13.660;2023-04-03T15:44:22;102564.50;;;5.63
53412;BMP280;39307;52.870;13.660;2023-04-03T15:46:49;102576.81;;;5.36
53412;BMP280;39307;52.870;13.660;2023-04-03T15:49:16;102567.69;;;5.31
53412;BMP280;39307;52.870;13.660;2023-04-03T15:51:42;102563.00;;;5.36